Time;durP1;ratioP1;P1;durP2;ratioP2;P2;SDS_P1;SDS_P2;PMS_P1;PMS_P2;Temp;Humidity;BMP_temperature;BMP_pressure;BME280_temperature;BME280_humidity;BME280_pressure;Samples;Min_cycle;Max_cycle;Signal;HPM_P1;HPM_P2
2023/03/13 00:01:56;;;;;;;17.88;10.52;;;;;;;;;;10103664;28;20072;-65
2023/03/13 00:06:49;;;;;;;14.27;10.27;;;;;;;;;;10110140;28;20049;-65
2023/03/13 00:11:43;;;;;;;12.05;10.10;;;;;;;;;;10111779;28;20057;-65
2023/03/13 00:16:38;;;;;;;17.45;10.50;;;;;;;;;;10110724;28;20045;-65
2023/03/13 00:21:31;;;;;;;16.63;10.82;;;;;;;;;;10108703;28;20048;-64
2023/03/13 00:26:25;;;;;;;16.02;12.05;;;;;;;;;;10109667;28;20478;-64
2023/03/13 00:31:20;;;;;;;18.77;12.50;;;;;;;;;;10104959;28;20427;-64
2023/03/13 00:36:16;;;;;;;17.85;13.18;;;;;;;;;;10101646;28;20407;-65
2023/03/13 00:41:30;;;;;;;13.82;12.43;;;;;;;;;;10105924;28;20065;-64
2023/03/13 00:46:25;;;;;;;17.35;12.73;;;;;;;;;;10098894;28;20040;-65
2023/03/13 00:51:18;;;;;;;16.42;12.43;;;;;;;;;;10103999;28;20502;-65
2023/03/13 00:56:13;;;;;;;14.95;11.15;;;;;;;;;;10103873;28;20045;-64
2023/03/13 01:01:10;;;;;;;20.30;13.93;;;;;;;;;;10120608;28;20049;-65
2023/03/13 01:06:07;;;;;;;16.90;10.57;;;;;;;;;;10109265;28;20045;-65
2023/03/13 01:11:06;;;;;;;12.80;10.40;;;;;;;;;;10104668;28;20475;-65
2023/03/13 01:16:13;;;;;;;22.20;10.77;;;;;;;;;;10098934;28;20033;-65
2023/03/13 01:21:06;;;;;;;19.42;10.85;;;;;;;;;;10107842;28;20561;-65
2023/03/13 01:25:59;;;;;;;19.05;12.23;;;;;;;;;;10100539;28;20052;-65
2023/03/13 01:30:52;;;;;;;16.58;12.02;;;;;;;;;;10105855;28;20055;-65
2023/03/13 01:35:46;;;;;;;20.90;11.77;;;;;;;;;;10095842;28;20049;-65
2023/03/13 01:40:44;;;;;;;16.85;13.05;;;;;;;;;;10103701;28;20495;-65
2023/03/13 01:46:03;;;;;;;19.73;12.65;;;;;;;;;;10106825;28;20037;-65
2023/03/13 01:51:09;;;;;;;20.00;11.30;;;;;;;;;;10077458;28;20053;-64
2023/03/13 01:56:05;;;;;;;17.08;11.98;;;;;;;;;;10097646;28;20056;-65
2023/03/13 02:01:04;;;;;;;15.18;10.52;;;;;;;;;;10106882;28;20107;-65
2023/03/13 02:05:59;;;;;;;17.27;11.65;;;;;;;;;;10105710;28;20044;-65
2023/03/13 02:11:30;;;;;;;16.50;11.48;;;;;;;;;;10090095;28;20045;-65
2023/03/13 02:16:23;;;;;;;16.10;11.18;;;;;;;;;;10098077;28;20044;-65
2023/03/13 02:21:42;;;;;;;21.83;14.18;;;;;;;;;;10093641;28;20041;-64
2023/03/13 02:26:44;;;;;;;15.38;11.50;;;;;;;;;;10083049;28;20145;-64
2023/03/13 02:31:38;;;;;;;16.60;11.48;;;;;;;;;;10106328;28;20049;-64
2023/03/13 02:36:31;;;;;;;13.70;10.88;;;;;;;;;;10095111;28;20056;-64
2023/03/13 02:41:24;;;;;;;12.90;9.10;;;;;;;;;;10105593;28;20162;-63
2023/03/13 02:46:20;;;;;;;15.20;11.52;;;;;;;;;;10097518;28;20053;-63
2023/03/13 02:51:19;;;;;;;17.80;10.65;;;;;;;;;;10104537;28;20053;-65
2023/03/13 02:56:14;;;;;;;16.13;14.27;;;;;;;;;;10103043;28;20033;-63
2023/03/13 03:01:07;;;;;;;16.25;11.77;;;;;;;;;;10085952;28;20080;-64
2023/03/13 03:06:06;;;;;;;18.50;14.07;;;;;;;;;;10104351;28;20439;-63
2023/03/13 03:10:58;;;;;;;15.60;12.10;;;;;;;;;;10099480;28;20041;-65
2023/03/13 03:15:52;;;;;;;20.25;13.13;;;;;;;;;;10105209;28;20041;-65
2023/03/13 03:20:46;;;;;;;28.33;13.38;;;;;;;;;;10104170;28;20453;-65
2023/03/13 03:25:39;;;;;;;20.05;12.45;;;;;;;;;;10089919;28;20042;-65
2023/03/13 03:30:32;;;;;;;18.08;11.70;;;;;;;;;;10103330;28;20056;-65
2023/03/13 03:35:25;;;;;;;18.48;12.18;;;;;;;;;;10104357;28;20087;-65
2023/03/13 03:40:20;;;;;;;16.70;12.18;;;;;;;;;;10107979;28;20060;-66
2023/03/13 03:45:13;;;;;;;14.85;11.68;;;;;;;;;;10110019;28;20049;-69
2023/03/13 03:50:09;;;;;;;16.08;12.40;;;;;;;;;;10088694;28;20053;-69
2023/03/13 03:55:11;;;;;;;15.02;12.77;;;;;;;;;;10111896;28;20518;-66
2023/03/13 04:00:06;;;;;;;15.65;13.27;;;;;;;;;;10103963;28;20045;-65
2023/03/13 04:05:04;;;;;;;14.23;12.70;;;;;;;;;;10099898;28;20057;-65
2023/03/13 04:09:59;;;;;;;17.25;12.40;;;;;;;;;;10104187;28;20139;-65
2023/03/13 04:15:00;;;;;;;18.48;12.18;;;;;;;;;;10111026;28;20049;-65
2023/03/13 04:19:53;;;;;;;14.88;12.52;;;;;;;;;;10110875;28;20091;-65
2023/03/13 04:24:46;;;;;;;15.52;12.55;;;;;;;;;;10109090;28;20480;-66
2023/03/13 04:29:39;;;;;;;17.17;13.35;;;;;;;;;;10096176;28;20041;-64
2023/03/13 04:35:08;;;;;;;16.52;12.65;;;;;;;;;;10096453;28;20099;-65
2023/03/13 04:40:36;;;;;;;15.73;12.95;;;;;;;;;;10034113;28;20523;-64
2023/03/13 04:45:48;;;;;;;15.07;12.45;;;;;;;;;;10105521;28;20044;-64
2023/03/13 04:51:10;;;;;;;14.77;11.50;;;;;;;;;;10027724;28;20067;-64
2023/03/13 04:56:23;;;;;;;16.85;11.98;;;;;;;;;;10095346;28;20080;-64
2023/03/13 05:01:44;;;;;;;17.17;12.27;;;;;;;;;;10110519;28;20057;-64
2023/03/13 05:06:57;;;;;;;15.63;12.57;;;;;;;;;;10109184;28;20446;-64
2023/03/13 05:12:10;;;;;;;14.77;12.52;;;;;;;;;;10096335;28;20437;-64
2023/03/13 05:17:26;;;;;;;22.45;13.05;;;;;;;;;;10105293;28;20055;-64
2023/03/13 05:22:31;;;;;;;16.88;11.88;;;;;;;;;;10107399;28;20049;-65
2023/03/13 05:27:51;;;;;;;;;;;;;;;;;;10103617;28;20809;-65
2023/03/13 05:33:18;;;;;;;18.42;13.00;;;;;;;;;;10091913;28;19944;-65
2023/03/13 05:38:21;;;;;;;18.42;11.73;;;;;;;;;;10107924;28;20055;-65
2023/03/13 05:43:31;;;;;;;17.60;12.65;;;;;;;;;;10105140;28;20053;-65
2023/03/13 05:48:37;;;;;;;17.33;12.73;;;;;;;;;;10106369;28;20037;-67
2023/03/13 05:53:51;;;;;;;17.55;12.50;;;;;;;;;;10104921;28;20060;-66
2023/03/13 05:59:01;;;;;;;21.00;14.23;;;;;;;;;;10106558;28;20098;-67
2023/03/13 06:04:13;;;;;;;19.48;14.18;;;;;;;;;;10106772;28;20052;-67
2023/03/13 06:09:06;;;;;;;26.42;14.48;;;;;;;;;;10099273;28;20515;-66
2023/03/13 06:13:59;;;;;;;14.52;12.77;;;;;;;;;;10105739;28;20127;-65
2023/03/13 06:19:01;;;;;;;17.77;14.43;;;;;;;;;;10106758;28;20082;-66
2023/03/13 06:23:56;;;;;;;23.23;15.43;;;;;;;;;;10100534;28;20048;-66
2023/03/13 06:28:51;;;;;;;19.80;16.05;;;;;;;;;;10096514;28;20041;-66
2023/03/13 06:33:43;;;;;;;32.47;16.15;;;;;;;;;;10102057;28;20426;-66
2023/03/13 06:38:37;;;;;;;23.02;13.75;;;;;;;;;;10101645;28;20076;-66
2023/03/13 06:43:31;;;;;;;16.15;12.65;;;;;;;;;;10098179;28;20068;-65
2023/03/13 06:48:24;;;;;;;15.60;12.40;;;;;;;;;;10103827;28;20071;-66
2023/03/13 06:53:19;;;;;;;18.73;12.05;;;;;;;;;;10096625;28;20045;-66
2023/03/13 06:58:12;;;;;;;18.85;13.43;;;;;;;;;;10100357;28;20055;-65
2023/03/13 07:03:23;;;;;;;22.80;13.07;;;;;;;;;;10079760;28;20057;-66
2023/03/13 07:08:16;;;;;;;18.95;14.57;;;;;;;;;;10087317;28;20482;-66
2023/03/13 07:13:09;;;;;;;21.50;13.35;;;;;;;;;;10099271;28;20099;-66
2023/03/13 07:18:03;;;;;;;22.02;15.30;;;;;;;;;;10094878;28;20060;-66
2023/03/13 07:22:57;;;;;;;18.17;14.35;;;;;;;;;;10102886;28;20476;-66
2023/03/13 07:27:52;;;;;;;24.95;14.98;;;;;;;;;;10105978;28;20049;-65
2023/03/13 07:32:45;;;;;;;25.95;14.40;;;;;;;;;;10096851;28;20052;-68
2023/03/13 07:37:38;;;;;;;17.10;12.68;;;;;;;;;;10105111;28;20053;-67
2023/03/13 07:42:33;;;;;;;18.55;13.10;;;;;;;;;;10105282;28;20068;-67
2023/03/13 07:47:25;;;;;;;14.55;12.70;;;;;;;;;;10102944;28;20534;-67
2023/03/13 07:52:19;;;;;;;15.48;12.35;;;;;;;;;;10104420;28;20491;-67
2023/03/13 07:57:12;;;;;;;18.52;11.55;;;;;;;;;;10103409;28;20462;-67
2023/03/13 08:02:07;;;;;;;17.85;11.68;;;;;;;;;;10080935;28;20065;-67
2023/03/13 08:07:00;;;;;;;14.40;10.98;;;;;;;;;;10084544;28;20063;-67
2023/03/13 08:11:54;;;;;;;18.05;13.50;;;;;;;;;;10101005;28;20044;-68
2023/03/13 08:16:48;;;;;;;14.82;13.02;;;;;;;;;;10084276;28;20068;-67
2023/03/13 08:21:41;;;;;;;14.75;13.23;;;;;;;;;;10096396;28;20045;-67
2023/03/13 08:26:35;;;;;;;20.42;14.48;;;;;;;;;;10100926;28;20468;-67
2023/03/13 08:31:48;;;;;;;21.50;15.23;;;;;;;;;;10092011;28;20439;-68
2023/03/13 08:36:41;;;;;;;17.50;14.13;;;;;;;;;;10103463;28;20037;-68
2023/03/13 08:41:35;;;;;;;16.13;13.38;;;;;;;;;;10109004;28;20048;-68
2023/03/13 08:46:29;;;;;;;18.02;14.88;;;;;;;;;;10108640;28;20052;-68
2023/03/13 08:51:25;;;;;;;26.15;15.73;;;;;;;;;;10102804;28;20053;-67
2023/03/13 08:56:20;;;;;;;27.98;15.82;;;;;;;;;;10095541;28;20057;-67
2023/03/13 09:01:13;;;;;;;28.23;17.23;;;;;;;;;;10099555;28;20053;-68
2023/03/13 09:06:07;;;;;;;24.08;17.27;;;;;;;;;;10100080;28;20418;-68
2023/03/13 09:11:02;;;;;;;26.73;16.65;;;;;;;;;;10111057;28;20131;-68
2023/03/13 09:15:59;;;;;;;22.77;16.63;;;;;;;;;;10082564;28;20514;-67
2023/03/13 09:20:52;;;;;;;23.73;15.57;;;;;;;;;;10109620;28;20045;-67
2023/03/13 09:25:44;;;;;;;20.80;16.08;;;;;;;;;;10109148;28;20080;-68
2023/03/13 09:30:38;;;;;;;20.25;15.73;;;;;;;;;;10095892;28;20053;-67
2023/03/13 09:35:31;;;;;;;15.32;13.75;;;;;;;;;;10104779;28;20123;-67
2023/03/13 09:40:25;;;;;;;16.83;15.18;;;;;;;;;;10096970;28;20075;-64
2023/03/13 09:45:39;;;;;;;17.52;13.38;;;;;;;;;;10090721;28;20065;-68
2023/03/13 09:50:35;;;;;;;23.90;12.30;;;;;;;;;;10101278;28;20052;-67
2023/03/13 09:55:31;;;;;;;14.30;11.43;;;;;;;;;;10095535;28;20045;-66
2023/03/13 10:00:32;;;;;;;19.73;13.10;;;;;;;;;;10080972;28;20045;-65
2023/03/13 10:05:28;;;;;;;22.45;10.77;;;;;;;;;;10091562;28;20579;-65
2023/03/13 10:10:38;;;;;;;19.05;11.93;;;;;;;;;;10098399;28;20079;-64
2023/03/13 10:15:37;;;;;;;16.63;13.65;;;;;;;;;;10090624;28;20114;-63
2023/03/13 10:20:35;;;;;;;15.80;11.05;;;;;;;;;;10099305;28;20048;-63
2023/03/13 10:25:39;;;;;;;13.30;10.05;;;;;;;;;;10096518;28;20041;-62
2023/03/13 10:30:34;;;;;;;10.55;8.55;;;;;;;;;;10099916;28;20507;-62
2023/03/13 10:35:33;;;;;;;12.18;8.50;;;;;;;;;;10096690;28;20538;-62
2023/03/13 10:40:27;;;;;;;12.30;8.95;;;;;;;;;;10085941;28;20568;-62
2023/03/13 10:45:21;;;;;;;14.00;9.68;;;;;;;;;;10075847;28;20049;-62
2023/03/13 10:50:20;;;;;;;12.90;11.57;;;;;;;;;;10092010;28;20060;-62
2023/03/13 10:55:19;;;;;;;18.92;9.90;;;;;;;;;;10097675;28;20085;-63
2023/03/13 11:00:26;;;;;;;15.52;11.13;;;;;;;;;;10103941;28;20475;-63
2023/03/13 11:05:27;;;;;;;14.35;8.75;;;;;;;;;;10079703;28;20056;-62
2023/03/13 11:10:24;;;;;;;10.40;8.32;;;;;;;;;;10105470;28;20084;-65
2023/03/13 11:15:37;;;;;;;11.63;8.65;;;;;;;;;;10092407;28;20051;-65
2023/03/13 11:20:35;;;;;;;11.98;9.30;;;;;;;;;;10084988;28;20053;-65
2023/03/13 11:26:09;;;;;;;10.85;8.70;;;;;;;;;;10074929;28;20495;-65
2023/03/13 11:31:04;;;;;;;13.70;8.95;;;;;;;;;;10076349;28;20049;-65
2023/03/13 11:36:20;;;;;;;11.70;9.68;;;;;;;;;;10087174;28;20578;-65
2023/03/13 11:41:28;;;;;;;14.35;9.85;;;;;;;;;;10082991;28;20316;-65
2023/03/13 11:46:41;;;;;;;12.45;8.45;;;;;;;;;;10081240;28;20092;-64
2023/03/13 11:51:51;;;;;;;16.50;9.75;;;;;;;;;;10096187;28;20329;-66
2023/03/13 11:56:49;;;;;;;12.85;8.30;;;;;;;;;;10101175;28;20464;-66
2023/03/13 12:01:52;;;;;;;13.75;8.32;;;;;;;;;;10108147;28;20495;-65
2023/03/13 12:06:58;;;;;;;11.73;8.05;;;;;;;;;;10112480;28;20559;-65
2023/03/13 12:11:58;;;;;;;12.27;7.80;;;;;;;;;;10110805;28;20135;-65
2023/03/13 12:17:14;;;;;;;12.10;7.63;;;;;;;;;;10111162;28;20053;-65
2023/03/13 12:22:19;;;;;;;13.03;8.90;;;;;;;;;;10111267;28;20055;-65
2023/03/13 12:27:24;;;;;;;13.40;8.85;;;;;;;;;;10095480;28;20042;-64
2023/03/13 12:32:19;;;;;;;11.93;8.02;;;;;;;;;;10112651;28;20053;-65
2023/03/13 12:37:24;;;;;;;12.23;8.32;;;;;;;;;;10096616;28;20076;-65
2023/03/13 12:42:56;;;;;;;14.30;8.27;;;;;;;;;;10107723;28;20499;-65
2023/03/13 12:48:07;;;;;;;9.30;7.47;;;;;;;;;;10094114;28;20045;-66
2023/03/13 12:53:15;;;;;;;8.98;7.22;;;;;;;;;;10101251;28;20060;-66
2023/03/13 12:58:36;;;;;;;8.77;6.70;;;;;;;;;;10108959;28;20132;-65
2023/03/13 13:04:01;;;;;;;11.30;7.38;;;;;;;;;;10110090;28;20045;-65
2023/03/13 13:08:53;;;;;;;20.73;7.93;;;;;;;;;;10101642;28;20041;-65
2023/03/13 13:13:47;;;;;;;12.15;7.57;;;;;;;;;;10088497;28;20045;-64
2023/03/13 13:18:40;;;;;;;8.27;6.57;;;;;;;;;;10093562;28;20052;-64
2023/03/13 13:23:33;;;;;;;14.55;8.68;;;;;;;;;;10103798;28;20048;-63
2023/03/13 13:28:33;;;;;;;12.20;7.78;;;;;;;;;;10106894;28;20135;-63
2023/03/13 13:33:29;;;;;;;9.70;7.80;;;;;;;;;;10107644;28;20491;-63
2023/03/13 13:38:35;;;;;;;13.75;8.45;;;;;;;;;;10104515;28;20061;-66
2023/03/13 13:43:39;;;;;;;8.32;7.43;;;;;;;;;;10091509;28;20057;-65
2023/03/13 13:48:42;;;;;;;13.40;8.30;;;;;;;;;;10105998;28;20056;-66
2023/03/13 13:53:44;;;;;;;15.98;8.50;;;;;;;;;;10096823;28;20045;-67
2023/03/13 13:58:40;;;;;;;14.45;9.30;;;;;;;;;;10107614;28;20131;-67
2023/03/13 14:03:40;;;;;;;12.35;8.98;;;;;;;;;;10105958;28;20071;-67
2023/03/13 14:08:40;;;;;;;9.80;8.38;;;;;;;;;;10107672;28;20511;-67
2023/03/13 14:13:33;;;;;;;11.45;8.43;;;;;;;;;;10096753;28;20056;-68
2023/03/13 14:18:27;;;;;;;12.30;8.93;;;;;;;;;;10104871;28;20063;-67
2023/03/13 14:23:58;;;;;;;10.63;8.43;;;;;;;;;;10100536;28;20072;-68
2023/03/13 14:28:56;;;;;;;16.92;10.68;;;;;;;;;;10021663;28;20547;-67
2023/03/13 14:33:50;;;;;;;11.05;9.52;;;;;;;;;;10084123;28;20048;-67
2023/03/13 14:38:54;;;;;;;12.18;10.05;;;;;;;;;;10103081;28;20063;-66
2023/03/13 14:43:54;;;;;;;10.30;9.40;;;;;;;;;;10105670;28;20065;-65
2023/03/13 14:48:48;;;;;;;14.57;11.77;;;;;;;;;;10104684;28;20051;-66
2023/03/13 14:53:52;;;;;;;12.73;9.30;;;;;;;;;;10102260;28;20099;-66
2023/03/13 14:58:45;;;;;;;16.08;8.95;;;;;;;;;;10108403;28;20128;-67
2023/03/13 15:04:17;;;;;;;10.18;8.45;;;;;;;;;;10105265;28;20132;-67
2023/03/13 15:09:19;;;;;;;11.90;9.25;;;;;;;;;;10099947;28;20106;-66
2023/03/13 15:14:36;;;;;;;10.50;8.50;;;;;;;;;;10096855;28;20503;-66
2023/03/13 15:19:31;;;;;;;15.10;9.07;;;;;;;;;;10103763;28;20518;-66
2023/03/13 15:24:30;;;;;;;14.45;12.18;;;;;;;;;;10101537;28;20573;-65
2023/03/13 15:29:24;;;;;;;13.10;8.55;;;;;;;;;;10094456;28;20552;-67
2023/03/13 15:34:24;;;;;;;22.15;9.88;;;;;;;;;;10103813;28;20075;-67
2023/03/13 15:39:21;;;;;;;10.00;9.10;;;;;;;;;;10105031;28;20071;-66
2023/03/13 15:44:15;;;;;;;16.38;9.23;;;;;;;;;;10105075;28;20045;-66
2023/03/13 15:49:47;;;;;;;11.32;9.70;;;;;;;;;;10100348;28;20549;-67
2023/03/13 15:55:00;;;;;;;25.38;11.98;;;;;;;;;;10098125;28;20051;-67
2023/03/13 15:59:53;;;;;;;14.45;11.05;;;;;;;;;;10096984;28;20133;-66
2023/03/13 16:04:46;;;;;;;11.57;9.50;;;;;;;;;;10095670;28;20079;-67
2023/03/13 16:09:41;;;;;;;12.52;9.43;;;;;;;;;;10104975;28;20085;-67
2023/03/13 16:14:35;;;;;;;16.88;10.45;;;;;;;;;;10093448;28;20049;-67
2023/03/13 16:19:29;;;;;;;14.68;13.13;;;;;;;;;;10093917;28;20127;-67
2023/03/13 16:24:23;;;;;;;15.38;11.73;;;;;;;;;;10100059;28;20056;-67
2023/03/13 16:29:36;;;;;;;18.60;11.75;;;;;;;;;;10099829;28;20499;-67
2023/03/13 16:35:08;;;;;;;18.77;11.75;;;;;;;;;;10086104;28;20081;-67
2023/03/13 16:40:03;;;;;;;23.02;12.25;;;;;;;;;;10092772;28;20049;-67
2023/03/13 16:45:18;;;;;;;18.60;11.88;;;;;;;;;;10097791;28;20053;-67
2023/03/13 16:50:25;;;;;;;23.85;19.67;;;;;;;;;;10099375;28;20041;-66
2023/03/13 16:55:20;;;;;;;23.17;17.48;;;;;;;;;;10091442;28;20136;-67
2023/03/13 17:00:19;;;;;;;16.75;14.75;;;;;;;;;;10096432;28;20045;-67
2023/03/13 17:05:14;;;;;;;40.05;16.10;;;;;;;;;;10083463;28;20458;-67
2023/03/13 17:10:33;;;;;;;21.55;14.82;;;;;;;;;;10095123;28;20103;-67
2023/03/13 17:15:28;;;;;;;29.83;17.60;;;;;;;;;;10086851;28;20052;-66
2023/03/13 17:20:25;;;;;;;24.05;18.73;;;;;;;;;;10103079;28;20069;-66
2023/03/13 17:25:18;;;;;;;17.30;15.23;;;;;;;;;;10103543;28;20049;-67
2023/03/13 17:30:22;;;;;;;21.50;15.23;;;;;;;;;;10104045;28;20068;-66
2023/03/13 17:35:16;;;;;;;16.48;14.40;;;;;;;;;;10083815;28;20511;-66
2023/03/13 17:40:21;;;;;;;26.20;14.77;;;;;;;;;;10000331;28;2867075;-66
2023/03/13 17:45:15;;;;;;;24.48;16.70;;;;;;;;;;10095287;28;20411;-66
2023/03/13 17:50:20;;;;;;;22.15;19.80;;;;;;;;;;10103946;28;20414;-67
2023/03/13 17:55:13;;;;;;;21.55;16.90;;;;;;;;;;10102090;28;20053;-67
2023/03/13 18:00:30;;;;;;;21.27;15.50;;;;;;;;;;10097627;28;20143;-67
2023/03/13 18:05:23;;;;;;;21.85;17.10;;;;;;;;;;10100220;28;20472;-67
2023/03/13 18:10:25;;;;;;;23.38;18.98;;;;;;;;;;10103566;28;20056;-67
2023/03/13 18:15:19;;;;;;;28.13;18.55;;;;;;;;;;10103722;28;20045;-68
2023/03/13 18:20:38;;;;;;;24.08;18.85;;;;;;;;;;10088708;28;20045;-67
2023/03/13 18:25:31;;;;;;;19.55;17.55;;;;;;;;;;10096276;28;20053;-67
2023/03/13 18:30:26;;;;;;;25.38;18.73;;;;;;;;;;10091243;28;20049;-67
2023/03/13 18:35:20;;;;;;;23.83;20.77;;;;;;;;;;10100226;28;20418;-67
2023/03/13 18:40:18;;;;;;;27.30;21.33;;;;;;;;;;10096960;28;20068;-69
2023/03/13 18:45:20;;;;;;;32.47;23.90;;;;;;;;;;10106128;28;20076;-68
2023/03/13 18:50:27;;;;;;;39.10;25.80;;;;;;;;;;10104086;28;20049;-67
2023/03/13 18:55:20;;;;;;;29.92;24.08;;;;;;;;;;10112543;28;20044;-67
2023/03/13 19:00:20;;;;;;;31.05;27.75;;;;;;;;;;10097871;28;20116;-67
2023/03/13 19:05:14;;;;;;;31.63;27.20;;;;;;;;;;10102070;28;20047;-68
2023/03/13 19:10:24;;;;;;;32.65;22.63;;;;;;;;;;10103348;28;20818;-69
2023/03/13 19:15:17;;;;;;;26.02;22.08;;;;;;;;;;10101793;28;20092;-69
2023/03/13 19:20:17;;;;;;;25.58;22.65;;;;;;;;;;10102030;28;20049;-71
2023/03/13 19:25:11;;;;;;;32.78;24.13;;;;;;;;;;10103156;28;20118;-72
2023/03/13 19:30:05;;;;;;;31.60;23.77;;;;;;;;;;10102302;28;20041;-71
2023/03/13 19:35:00;;;;;;;27.20;22.75;;;;;;;;;;10102495;28;20072;-70
2023/03/13 19:39:53;;;;;;;29.85;22.55;;;;;;;;;;10097314;28;20056;-70
2023/03/13 19:44:47;;;;;;;23.45;19.92;;;;;;;;;;10098256;28;20419;-69
2023/03/13 19:49:39;;;;;;;23.77;19.23;;;;;;;;;;10101041;28;20139;-69
2023/03/13 19:54:32;;;;;;;25.05;19.45;;;;;;;;;;10100491;28;20605;-68
2023/03/13 19:59:27;;;;;;;20.27;17.63;;;;;;;;;;10100202;28;20137;-67
2023/03/13 20:04:20;;;;;;;23.88;17.33;;;;;;;;;;10099594;28;20090;-70
2023/03/13 20:09:15;;;;;;;27.38;16.35;;;;;;;;;;10100330;28;20799;-68
2023/03/13 20:14:07;;;;;;;18.05;14.52;;;;;;;;;;10095087;28;20048;-68
2023/03/13 20:19:02;;;;;;;20.13;14.82;;;;;;;;;;10098457;28;20155;-68
2023/03/13 20:23:58;;;;;;;21.75;16.10;;;;;;;;;;10099896;28;20087;-68
2023/03/13 20:28:52;;;;;;;18.50;15.63;;;;;;;;;;10108279;28;20045;-68
2023/03/13 20:33:47;;;;;;;20.75;13.25;;;;;;;;;;10106590;28;20448;-67
2023/03/13 20:38:40;;;;;;;20.40;13.40;;;;;;;;;;10106281;28;20084;-68
2023/03/13 20:43:33;;;;;;;15.25;12.57;;;;;;;;;;10105720;28;20045;-67
2023/03/13 20:48:28;;;;;;;17.17;12.82;;;;;;;;;;10106217;28;20118;-68
2023/03/13 20:53:22;;;;;;;16.70;13.55;;;;;;;;;;10106574;28;20156;-67
2023/03/13 20:58:16;;;;;;;21.35;13.52;;;;;;;;;;10100070;28;20057;-68
2023/03/13 21:03:09;;;;;;;19.90;15.70;;;;;;;;;;10104991;28;20478;-68
2023/03/13 21:08:02;;;;;;;17.65;14.27;;;;;;;;;;10095637;28;20446;-68
2023/03/13 21:12:56;;;;;;;19.67;13.43;;;;;;;;;;10096307;28;20055;-67
2023/03/13 21:17:49;;;;;;;17.48;12.32;;;;;;;;;;10101662;28;20056;-68
2023/03/13 21:22:43;;;;;;;19.65;13.65;;;;;;;;;;10102127;28;20087;-69
2023/03/13 21:27:37;;;;;;;13.23;11.80;;;;;;;;;;10100471;28;20052;-68
2023/03/13 21:32:31;;;;;;;18.23;12.18;;;;;;;;;;10101315;28;20499;-68
2023/03/13 21:37:24;;;;;;;16.63;10.98;;;;;;;;;;10101899;28;20049;-68
2023/03/13 21:42:19;;;;;;;17.15;12.18;;;;;;;;;;10105695;28;20049;-68
2023/03/13 21:47:16;;;;;;;14.30;12.68;;;;;;;;;;10107444;28;20127;-67
2023/03/13 21:52:09;;;;;;;18.63;12.57;;;;;;;;;;10103266;28;20106;-67
2023/03/13 21:57:02;;;;;;;13.25;11.70;;;;;;;;;;10101992;28;20049;-67
2023/03/13 22:01:57;;;;;;;14.63;12.45;;;;;;;;;;10097033;28;20107;-68
2023/03/13 22:06:50;;;;;;;17.30;11.88;;;;;;;;;;10090916;28;20154;-67
2023/03/13 22:11:44;;;;;;;18.15;11.45;;;;;;;;;;10107770;28;20056;-68
2023/03/13 22:16:37;;;;;;;17.83;12.60;;;;;;;;;;10102088;28;20514;-67
2023/03/13 22:21:30;;;;;;;14.93;11.88;;;;;;;;;;10105989;28;20143;-68
2023/03/13 22:26:23;;;;;;;15.55;12.02;;;;;;;;;;10103454;28;20069;-67
2023/03/13 22:31:17;;;;;;;15.68;10.95;;;;;;;;;;10094888;28;20549;-68
2023/03/13 22:36:11;;;;;;;16.15;11.38;;;;;;;;;;10107075;28;20057;-68
2023/03/13 22:41:06;;;;;;;16.08;10.40;;;;;;;;;;10105223;28;20053;-68
2023/03/13 22:45:59;;;;;;;12.85;10.70;;;;;;;;;;10100849;28;20072;-68
2023/03/13 22:51:04;;;;;;;10.45;9.23;;;;;;;;;;10085624;28;20195;-68
2023/03/13 22:56:00;;;;;;;17.80;11.65;;;;;;;;;;10094298;28;20103;-68
2023/03/13 23:00:53;;;;;;;15.13;10.55;;;;;;;;;;10083816;28;20049;-68
2023/03/13 23:05:52;;;;;;;19.90;10.80;;;;;;;;;;10099533;28;20045;-68
2023/03/13 23:10:46;;;;;;;17.10;11.10;;;;;;;;;;10105861;28;20539;-68
2023/03/13 23:15:38;;;;;;;16.33;10.32;;;;;;;;;;10099097;28;20404;-68
2023/03/13 23:20:48;;;;;;;13.67;10.17;;;;;;;;;;10088768;28;20087;-68
2023/03/13 23:25:41;;;;;;;14.68;10.75;;;;;;;;;;10090912;28;20049;-68
2023/03/13 23:30:36;;;;;;;12.95;9.30;;;;;;;;;;10105623;28;20047;-68
2023/03/13 23:35:29;;;;;;;19.55;11.00;;;;;;;;;;10098312;28;20041;-68
2023/03/13 23:40:23;;;;;;;14.50;11.65;;;;;;;;;;10084430;28;20459;-68
2023/03/13 23:45:16;;;;;;;19.98;12.63;;;;;;;;;;10103845;28;20048;-68
2023/03/13 23:50:15;;;;;;;17.20;11.77;;;;;;;;;;10104127;28;20060;-68
2023/03/13 23:55:08;;;;;;;18.63;11.05;;;;;;;;;;10094472;28;20056;-68
